Time;durP1;ratioP1;P1;durP2;ratioP2;P2;SDS_P1;SDS_P2;PMS_P1;PMS_P2;Temp;Humidity;BMP_temperature;BMP_pressure;BME280_temperature;BME280_humidity;BME280_pressure;Samples;Min_cycle;Max_cycle;Signal;HPM_P1;HPM_P2
2023/08/29 00:01:32;;;;;;;4.13;2.33;;;;;;;;;;5083957;28;20493;-80
2023/08/29 00:04:00;;;;;;;4.53;2.67;;;;;;;;;;5082146;28;20524;-81
2023/08/29 00:06:29;;;;;;;5.20;2.80;;;;;;;;;;5081322;28;20456;-79
2023/08/29 00:08:56;;;;;;;4.00;2.80;;;;;;;;;;5081728;28;20480;-79
2023/08/29 00:11:24;;;;;;;7.60;2.80;;;;;;;;;;5081335;28;20539;-79
2023/08/29 00:13:52;;;;;;;6.57;2.30;;;;;;;;;;5082103;28;21001;-80
2023/08/29 00:16:20;;;;;;;3.37;2.60;;;;;;;;;;5084003;28;20762;-78
2023/08/29 00:18:47;;;;;;;3.00;2.30;;;;;;;;;;5085686;28;20753;-78
2023/08/29 00:21:17;;;;;;;4.93;3.00;;;;;;;;;;5088946;28;20451;-78
2023/08/29 00:23:48;;;;;;;7.13;2.83;;;;;;;;;;5089304;28;20440;-80
2023/08/29 00:26:16;;;;;;;5.40;3.03;;;;;;;;;;5088964;28;20849;-79
2023/08/29 00:28:43;;;;;;;4.97;2.73;;;;;;;;;;5084054;28;20460;-80
2023/08/29 00:31:11;;;;;;;5.00;3.07;;;;;;;;;;5085221;28;20857;-80
2023/08/29 00:33:39;;;;;;;3.23;2.43;;;;;;;;;;5085889;28;20826;-78
2023/08/29 00:36:06;;;;;;;4.60;2.87;;;;;;;;;;5085633;28;20543;-79
2023/08/29 00:38:34;;;;;;;3.83;2.77;;;;;;;;;;5088977;28;20452;-78
2023/08/29 00:41:03;;;;;;;5.20;3.00;;;;;;;;;;5086311;28;20453;-79
2023/08/29 00:43:31;;;;;;;4.30;3.10;;;;;;;;;;5085095;28;20931;-80
2023/08/29 00:46:00;;;;;;;4.50;2.87;;;;;;;;;;5084094;28;20881;-80
2023/08/29 00:48:29;;;;;;;4.30;2.77;;;;;;;;;;5087273;28;20475;-80
2023/08/29 00:50:57;;;;;;;5.87;2.77;;;;;;;;;;5087235;28;20440;-79
2023/08/29 00:53:26;;;;;;;6.10;2.40;;;;;;;;;;5085835;28;20510;-78
2023/08/29 00:55:53;;;;;;;5.93;2.97;;;;;;;;;;5084100;28;20456;-80
2023/08/29 00:58:22;;;;;;;4.50;3.00;;;;;;;;;;5084438;28;20425;-78
2023/08/29 01:00:50;;;;;;;5.70;3.50;;;;;;;;;;5088022;28;20456;-79
2023/08/29 01:03:17;;;;;;;5.37;3.70;;;;;;;;;;5085472;28;20491;-78
2023/08/29 01:05:45;;;;;;;4.10;3.00;;;;;;;;;;5086235;28;20445;-79
2023/08/29 01:08:13;;;;;;;3.60;3.20;;;;;;;;;;5086161;28;20467;-77
2023/08/29 01:10:47;;;;;;;3.80;3.27;;;;;;;;;;5087700;28;20452;-78
2023/08/29 01:13:23;;;;;;;5.30;3.27;;;;;;;;;;5087205;28;20498;-78
2023/08/29 01:15:53;;;;;;;6.43;3.57;;;;;;;;;;5088346;28;20456;-78
2023/08/29 01:18:21;;;;;;;5.33;3.50;;;;;;;;;;5088693;28;20491;-78
2023/08/29 01:20:51;;;;;;;5.10;3.63;;;;;;;;;;5089290;28;20496;-78
2023/08/29 01:23:21;;;;;;;6.80;3.40;;;;;;;;;;5083020;28;20782;-78
2023/08/29 01:25:54;;;;;;;8.23;3.43;;;;;;;;;;5084008;28;20460;-79
2023/08/29 01:28:23;;;;;;;4.03;3.10;;;;;;;;;;5084582;28;20857;-79
2023/08/29 01:30:51;;;;;;;5.37;4.13;;;;;;;;;;5085208;28;20463;-77
2023/08/29 01:33:19;;;;;;;8.10;4.10;;;;;;;;;;5085487;28;20487;-78
2023/08/29 01:35:47;;;;;;;6.63;3.60;;;;;;;;;;5088929;28;20461;-77
2023/08/29 01:38:17;;;;;;;5.47;3.57;;;;;;;;;;5089134;28;20480;-80
2023/08/29 01:40:44;;;;;;;5.20;3.90;;;;;;;;;;5086788;28;20461;-79
2023/08/29 01:43:12;;;;;;;5.93;3.40;;;;;;;;;;5086634;28;20723;-80
2023/08/29 01:45:41;;;;;;;5.60;3.80;;;;;;;;;;5088471;28;20519;-78
2023/08/29 01:48:08;;;;;;;5.63;4.00;;;;;;;;;;5087535;28;20461;-80
2023/08/29 01:50:37;;;;;;;6.97;5.80;;;;;;;;;;5085453;28;20432;-79
2023/08/29 01:53:04;;;;;;;8.57;4.40;;;;;;;;;;5085515;28;20447;-78
2023/08/29 01:55:32;;;;;;;5.00;3.70;;;;;;;;;;5085785;28;20461;-80
2023/08/29 01:58:00;;;;;;;8.53;4.33;;;;;;;;;;5086134;28;21048;-80
2023/08/29 02:00:28;;;;;;;4.97;4.00;;;;;;;;;;5084126;28;21006;-79
2023/08/29 02:02:57;;;;;;;5.50;4.00;;;;;;;;;;5085066;28;20467;-78
2023/08/29 02:05:25;;;;;;;6.77;4.40;;;;;;;;;;5085847;28;20744;-78
2023/08/29 02:07:52;;;;;;;6.10;4.00;;;;;;;;;;5086042;28;20453;-79
2023/08/29 02:10:20;;;;;;;4.80;4.23;;;;;;;;;;5088980;28;20482;-77
2023/08/29 02:12:47;;;;;;;5.53;4.40;;;;;;;;;;5084976;28;20532;-79
2023/08/29 02:15:16;;;;;;;5.33;4.13;;;;;;;;;;5087240;28;20494;-77
2023/08/29 02:17:44;;;;;;;6.30;4.50;;;;;;;;;;5084883;28;20904;-78
2023/08/29 02:20:15;;;;;;;4.53;4.00;;;;;;;;;;5084409;28;20456;-78
2023/08/29 02:22:43;;;;;;;7.17;4.40;;;;;;;;;;5083764;28;20471;-79
2023/08/29 02:25:10;;;;;;;8.10;5.07;;;;;;;;;;5084006;28;20437;-79
2023/08/29 02:27:38;;;;;;;6.03;5.10;;;;;;;;;;5084509;28;20508;-78
2023/08/29 02:30:09;;;;;;;9.57;5.20;;;;;;;;;;5084958;28;20472;-78
2023/08/29 02:32:39;;;;;;;6.00;4.93;;;;;;;;;;5087260;28;20451;-80
2023/08/29 02:35:11;;;;;;;6.97;4.80;;;;;;;;;;5084137;28;20496;-79
2023/08/29 02:37:40;;;;;;;6.00;5.40;;;;;;;;;;5085365;28;20684;-80
2023/08/29 02:40:09;;;;;;;6.13;4.90;;;;;;;;;;5086261;28;20822;-80
2023/08/29 02:42:37;;;;;;;6.50;4.50;;;;;;;;;;5086258;28;20542;-81
2023/08/29 02:45:08;;;;;;;8.07;5.20;;;;;;;;;;5083429;28;20449;-80
2023/08/29 02:47:35;;;;;;;9.87;5.40;;;;;;;;;;5083769;28;20753;-81
2023/08/29 02:50:16;;;;;;;6.87;5.67;;;;;;;;;;5083195;28;20730;-79
2023/08/29 02:52:45;;;;;;;7.30;5.60;;;;;;;;;;5082901;28;20452;-80
2023/08/29 02:55:12;;;;;;;6.43;5.70;;;;;;;;;;5083139;28;20492;-80
2023/08/29 02:57:40;;;;;;;9.90;6.03;;;;;;;;;;5081859;28;20527;-80
2023/08/29 03:00:11;;;;;;;6.30;5.33;;;;;;;;;;5082197;28;20449;-76
2023/08/29 03:02:40;;;;;;;7.00;5.53;;;;;;;;;;5082779;28;20755;-78
2023/08/29 03:05:08;;;;;;;7.87;6.30;;;;;;;;;;5083481;28;20838;-77
2023/08/29 03:07:35;;;;;;;8.27;6.10;;;;;;;;;;5088182;28;20448;-78
2023/08/29 03:10:07;;;;;;;8.57;6.70;;;;;;;;;;5082533;28;20452;-78
2023/08/29 03:12:35;;;;;;;7.57;6.70;;;;;;;;;;5087220;28;20437;-80
2023/08/29 03:15:03;;;;;;;7.93;6.47;;;;;;;;;;5085915;28;20910;-80
2023/08/29 03:17:30;;;;;;;7.67;6.70;;;;;;;;;;5086754;28;20445;-78
2023/08/29 03:19:58;;;;;;;7.10;6.40;;;;;;;;;;5085419;28;20730;-79
2023/08/29 03:22:25;;;;;;;8.50;6.40;;;;;;;;;;5085966;28;20440;-80
2023/08/29 03:24:53;;;;;;;9.37;6.97;;;;;;;;;;5086644;28;20483;-78
2023/08/29 03:27:22;;;;;;;8.23;7.43;;;;;;;;;;5083067;28;20805;-80
2023/08/29 03:29:52;;;;;;;7.90;6.27;;;;;;;;;;5086781;28;20475;-80
2023/08/29 03:32:20;;;;;;;10.20;6.17;;;;;;;;;;5082550;28;20455;-79
2023/08/29 03:34:54;;;;;;;9.93;7.10;;;;;;;;;;5085651;28;20484;-79
2023/08/29 03:37:22;;;;;;;7.67;6.37;;;;;;;;;;5080762;28;20521;-79
2023/08/29 03:39:55;;;;;;;9.00;5.80;;;;;;;;;;5082664;28;20524;-80
2023/08/29 03:42:23;;;;;;;12.67;7.23;;;;;;;;;;5080004;28;20472;-80
2023/08/29 03:44:51;;;;;;;7.50;6.10;;;;;;;;;;5083095;28;20528;-79
2023/08/29 03:47:19;;;;;;;8.97;6.17;;;;;;;;;;5084121;28;20510;-78
2023/08/29 03:49:46;;;;;;;8.57;7.10;;;;;;;;;;5079831;28;20476;-78
2023/08/29 03:52:21;;;;;;;6.70;5.93;;;;;;;;;;5083901;28;20436;-80
2023/08/29 03:54:49;;;;;;;6.90;6.27;;;;;;;;;;5080876;28;20487;-80
2023/08/29 03:57:17;;;;;;;9.00;5.43;;;;;;;;;;5084168;28;20455;-80
2023/08/29 03:59:46;;;;;;;7.60;6.67;;;;;;;;;;5082391;28;20665;-80
2023/08/29 04:02:13;;;;;;;6.20;5.60;;;;;;;;;;5082355;28;20528;-80
2023/08/29 04:04:44;;;;;;;8.63;6.40;;;;;;;;;;5083080;28;20449;-80
2023/08/29 04:07:11;;;;;;;9.17;6.37;;;;;;;;;;5082376;28;20734;-80
2023/08/29 04:09:39;;;;;;;8.50;6.63;;;;;;;;;;5082481;28;20502;-79
2023/08/29 04:12:08;;;;;;;6.70;5.23;;;;;;;;;;5082455;28;20502;-79
2023/08/29 04:14:35;;;;;;;7.80;5.27;;;;;;;;;;5081647;28;20484;-78
2023/08/29 04:17:04;;;;;;;7.17;5.70;;;;;;;;;;5083053;28;20509;-79
2023/08/29 04:19:33;;;;;;;6.97;6.03;;;;;;;;;;5082765;28;20452;-78
2023/08/29 04:22:01;;;;;;;8.43;6.67;;;;;;;;;;5080478;28;20778;-79
2023/08/29 04:24:29;;;;;;;8.73;6.20;;;;;;;;;;5079928;28;20514;-80
2023/08/29 04:26:59;;;;;;;9.80;6.83;;;;;;;;;;5083063;28;20523;-80
2023/08/29 04:29:27;;;;;;;10.17;7.03;;;;;;;;;;5078084;28;20457;-78
2023/08/29 04:31:56;;;;;;;10.20;7.47;;;;;;;;;;5080594;28;20480;-77
2023/08/29 04:34:25;;;;;;;9.17;8.20;;;;;;;;;;5080217;28;20484;-80
2023/08/29 04:36:56;;;;;;;8.73;7.20;;;;;;;;;;5081997;28;20451;-77
2023/08/29 04:39:24;;;;;;;8.00;7.20;;;;;;;;;;5080462;28;20813;-78
2023/08/29 04:41:52;;;;;;;11.47;8.33;;;;;;;;;;5080040;28;20466;-79
2023/08/29 04:44:20;;;;;;;10.43;6.83;;;;;;;;;;5081582;28;20516;-80
2023/08/29 04:46:48;;;;;;;9.00;6.97;;;;;;;;;;5079394;28;20484;-79
2023/08/29 04:49:20;;;;;;;8.80;7.00;;;;;;;;;;5083925;28;20456;-78
2023/08/29 04:51:49;;;;;;;9.00;6.10;;;;;;;;;;5079156;28;20567;-79
2023/08/29 04:54:16;;;;;;;9.63;6.47;;;;;;;;;;5082359;28;20566;-79
2023/08/29 04:56:45;;;;;;;7.13;6.43;;;;;;;;;;5079506;28;20494;-79
2023/08/29 04:59:15;;;;;;;8.80;7.13;;;;;;;;;;5082454;28;20464;-80
2023/08/29 05:01:43;;;;;;;9.30;6.80;;;;;;;;;;5079119;28;20558;-80
2023/08/29 05:04:10;;;;;;;7.57;6.77;;;;;;;;;;5081968;28;20440;-78
2023/08/29 05:06:38;;;;;;;8.70;6.63;;;;;;;;;;5078107;28;20734;-78
2023/08/29 05:09:09;;;;;;;8.67;6.33;;;;;;;;;;5079334;28;20490;-79
2023/08/29 05:11:36;;;;;;;7.43;6.63;;;;;;;;;;5081676;28;20456;-79
2023/08/29 05:14:04;;;;;;;7.93;6.27;;;;;;;;;;5081574;28;20840;-78
2023/08/29 05:16:32;;;;;;;8.67;6.00;;;;;;;;;;5081515;28;20453;-78
2023/08/29 05:19:00;;;;;;;8.87;6.20;;;;;;;;;;5082781;28;20460;-77
2023/08/29 05:21:31;;;;;;;7.53;5.90;;;;;;;;;;5080124;28;20460;-78
2023/08/29 05:23:59;;;;;;;8.10;5.73;;;;;;;;;;5080259;28;20506;-78
2023/08/29 05:26:28;;;;;;;9.70;5.40;;;;;;;;;;5078182;28;20453;-78
2023/08/29 05:28:56;;;;;;;6.97;6.17;;;;;;;;;;5077231;28;20531;-80
2023/08/29 05:31:24;;;;;;;7.27;5.40;;;;;;;;;;5074399;28;20485;-77
2023/08/29 05:33:52;;;;;;;6.57;5.37;;;;;;;;;;5080184;28;20555;-78
2023/08/29 05:36:20;;;;;;;5.90;4.73;;;;;;;;;;5078104;28;20480;-78
2023/08/29 05:38:47;;;;;;;8.53;5.60;;;;;;;;;;5072563;28;20739;-78
2023/08/29 05:41:15;;;;;;;5.77;4.60;;;;;;;;;;5073113;28;20453;-77
2023/08/29 05:43:45;;;;;;;5.97;4.13;;;;;;;;;;5076636;28;20435;-78
2023/08/29 05:46:17;;;;;;;6.87;5.43;;;;;;;;;;5081084;28;20487;-79
2023/08/29 05:48:44;;;;;;;8.10;5.83;;;;;;;;;;5075610;28;20816;-78
2023/08/29 05:51:12;;;;;;;8.30;5.57;;;;;;;;;;5076530;28;20464;-79
2023/08/29 05:53:40;;;;;;;6.30;5.50;;;;;;;;;;5072808;28;20490;-77
2023/08/29 05:56:07;;;;;;;6.77;4.83;;;;;;;;;;5072636;28;20715;-77
2023/08/29 05:58:35;;;;;;;5.93;4.90;;;;;;;;;;5069880;28;20476;-78
2023/08/29 06:01:06;;;;;;;5.00;4.23;;;;;;;;;;5071421;28;20794;-77
2023/08/29 06:03:34;;;;;;;7.60;6.00;;;;;;;;;;5071856;28;20459;-78
2023/08/29 06:06:03;;;;;;;6.50;5.30;;;;;;;;;;5073346;28;20425;-79
2023/08/29 06:08:33;;;;;;;5.10;4.60;;;;;;;;;;5077319;28;20673;-78
2023/08/29 06:11:01;;;;;;;10.90;5.83;;;;;;;;;;5073828;28;20457;-77
2023/08/29 06:13:29;;;;;;;8.00;4.70;;;;;;;;;;5076680;28;20507;-78
2023/08/29 06:15:56;;;;;;;7.67;5.70;;;;;;;;;;5073277;28;20575;-78
2023/08/29 06:18:28;;;;;;;7.50;5.30;;;;;;;;;;5076018;28;20495;-77
2023/08/29 06:20:58;;;;;;;7.10;4.90;;;;;;;;;;5078569;28;20924;-80
2023/08/29 06:23:29;;;;;;;6.60;5.90;;;;;;;;;;5077015;28;20490;-78
2023/08/29 06:25:59;;;;;;;5.60;4.43;;;;;;;;;;5078211;28;20483;-78
2023/08/29 06:28:28;;;;;;;7.33;5.80;;;;;;;;;;5075902;28;20464;-79
2023/08/29 06:30:56;;;;;;;6.10;5.00;;;;;;;;;;5078623;28;20456;-81
2023/08/29 06:33:25;;;;;;;6.47;4.50;;;;;;;;;;5079432;28;20502;-81
2023/08/29 06:35:54;;;;;;;7.07;5.30;;;;;;;;;;5078121;28;20516;-79
2023/08/29 06:38:22;;;;;;;6.03;4.50;;;;;;;;;;5075684;28;20452;-78
2023/08/29 06:40:55;;;;;;;7.27;5.27;;;;;;;;;;5076634;28;20455;-80
2023/08/29 06:43:23;;;;;;;7.00;5.30;;;;;;;;;;5070410;28;20457;-79
2023/08/29 06:45:51;;;;;;;7.10;5.13;;;;;;;;;;5055293;28;20456;-79
2023/08/29 06:48:19;;;;;;;7.13;5.50;;;;;;;;;;5053536;28;20528;-80
2023/08/29 06:50:48;;;;;;;7.13;4.03;;;;;;;;;;5057078;28;20460;-78
2023/08/29 06:53:17;;;;;;;5.67;4.60;;;;;;;;;;5053335;28;20932;-79
2023/08/29 06:55:47;;;;;;;6.33;4.70;;;;;;;;;;5055582;28;20496;-78
2023/08/29 06:58:15;;;;;;;9.43;5.20;;;;;;;;;;5055229;28;20453;-79
2023/08/29 07:00:43;;;;;;;5.30;4.43;;;;;;;;;;5092446;28;20491;-80
2023/08/29 07:03:15;;;;;;;4.90;4.00;;;;;;;;;;5083945;28;20564;-80
2023/08/29 07:05:44;;;;;;;4.63;3.43;;;;;;;;;;5082953;28;20457;-79
2023/08/29 07:08:11;;;;;;;7.50;4.33;;;;;;;;;;5084058;28;20487;-79
2023/08/29 07:10:41;;;;;;;6.00;4.30;;;;;;;;;;5082586;28;20447;-78
2023/08/29 07:13:10;;;;;;;8.00;4.67;;;;;;;;;;5082591;28;20532;-80
2023/08/29 07:15:39;;;;;;;4.90;3.90;;;;;;;;;;5083636;28;20599;-81
2023/08/29 07:18:07;;;;;;;7.83;4.50;;;;;;;;;;5080090;28;20445;-79
2023/08/29 07:20:37;;;;;;;8.90;5.77;;;;;;;;;;5078411;28;20463;-80
2023/08/29 07:23:05;;;;;;;11.47;5.30;;;;;;;;;;5075361;28;20521;-79
2023/08/29 07:25:39;;;;;;;6.00;4.53;;;;;;;;;;5078148;28;20444;-81
2023/08/29 07:28:09;;;;;;;6.90;6.10;;;;;;;;;;5075350;28;20460;-80
2023/08/29 07:30:41;;;;;;;5.27;4.60;;;;;;;;;;5075228;28;21163;-80
2023/08/29 07:33:10;;;;;;;5.47;4.80;;;;;;;;;;5075955;28;20511;-79
2023/08/29 07:35:39;;;;;;;6.23;4.97;;;;;;;;;;5081721;28;20634;-80
2023/08/29 07:38:07;;;;;;;5.80;4.43;;;;;;;;;;5082927;28;20514;-78
2023/08/29 07:40:35;;;;;;;9.57;4.80;;;;;;;;;;5077496;28;20448;-79
2023/08/29 07:43:03;;;;;;;6.53;5.63;;;;;;;;;;5078262;28;20440;-80
2023/08/29 07:45:32;;;;;;;5.90;5.30;;;;;;;;;;5074888;28;20897;-80
2023/08/29 07:48:01;;;;;;;6.27;4.70;;;;;;;;;;5081379;28;20468;-80
2023/08/29 07:50:39;;;;;;;6.23;5.63;;;;;;;;;;5084617;28;20678;-80
2023/08/29 07:53:07;;;;;;;10.03;5.20;;;;;;;;;;5085784;28;20558;-79
2023/08/29 07:55:36;;;;;;;9.57;5.00;;;;;;;;;;5097550;28;20513;-79
2023/08/29 07:58:04;;;;;;;11.17;8.53;;;;;;;;;;5068121;28;20449;-80
2023/08/29 08:00:36;;;;;;;8.70;4.77;;;;;;;;;;5083781;28;20487;-80
2023/08/29 08:03:05;;;;;;;7.77;5.40;;;;;;;;;;5082620;28;20505;-79
2023/08/29 08:05:40;;;;;;;7.17;5.57;;;;;;;;;;5086173;28;20444;-78
2023/08/29 08:08:14;;;;;;;6.40;4.87;;;;;;;;;;5081783;28;20514;-78
2023/08/29 08:10:53;;;;;;;7.70;5.73;;;;;;;;;;5078536;28;20464;-80
2023/08/29 08:13:22;;;;;;;7.27;6.10;;;;;;;;;;5068662;28;20502;-79
2023/08/29 08:15:51;;;;;;;6.93;5.70;;;;;;;;;;5081869;28;20729;-81
2023/08/29 08:18:18;;;;;;;8.77;6.70;;;;;;;;;;5086718;28;20555;-79
2023/08/29 08:20:48;;;;;;;10.23;5.73;;;;;;;;;;5082592;28;20859;-78
2023/08/29 08:23:15;;;;;;;6.27;5.43;;;;;;;;;;5101767;28;20478;-79
2023/08/29 08:25:44;;;;;;;9.63;5.27;;;;;;;;;;5101633;28;20519;-78
2023/08/29 08:28:13;;;;;;;6.97;5.70;;;;;;;;;;5084301;28;20459;-78
2023/08/29 08:30:42;;;;;;;9.30;5.70;;;;;;;;;;5084790;28;20673;-80
2023/08/29 08:33:12;;;;;;;10.93;5.57;;;;;;;;;;5085736;28;20487;-79
2023/08/29 08:35:40;;;;;;;7.23;5.53;;;;;;;;;;5085318;28;20494;-79
2023/08/29 08:38:10;;;;;;;7.20;4.97;;;;;;;;;;5085000;28;20459;-80
2023/08/29 08:40:39;;;;;;;5.53;4.83;;;;;;;;;;5085950;28;20865;-79
2023/08/29 08:43:07;;;;;;;6.57;5.00;;;;;;;;;;5082367;28;20480;-78
2023/08/29 08:45:38;;;;;;;9.20;5.43;;;;;;;;;;5082048;28;20455;-79
2023/08/29 08:48:07;;;;;;;6.10;4.90;;;;;;;;;;5087996;28;20956;-77
2023/08/29 08:50:37;;;;;;;9.03;5.50;;;;;;;;;;5089466;28;20487;-80
2023/08/29 08:55:56;;;;;;;6.83;6.00;;;;;;;;;;5069215;28;20522;-79
2023/08/29 08:58:25;;;;;;;6.53;4.50;;;;;;;;;;5087607;28;20467;-79
2023/08/29 09:00:53;;;;;;;5.30;4.30;;;;;;;;;;5083139;28;20460;-79
2023/08/29 09:03:22;;;;;;;4.90;4.37;;;;;;;;;;5084074;28;20452;-79
2023/08/29 09:05:52;;;;;;;5.60;4.00;;;;;;;;;;5090552;28;20528;-79
2023/08/29 09:11:37;;;;;;;6.20;3.97;;;;;;;;;;5074447;28;20515;-79
2023/08/29 09:14:06;;;;;;;25.80;5.40;;;;;;;;;;5082517;28;20456;-78
2023/08/29 09:16:37;;;;;;;7.30;4.47;;;;;;;;;;5088832;28;20568;-80
2023/08/29 09:19:09;;;;;;;6.00;4.33;;;;;;;;;;5084597;28;20464;-78
2023/08/29 09:21:51;;;;;;;5.50;4.00;;;;;;;;;;5089694;28;20456;-81
2023/08/29 09:24:24;;;;;;;5.63;3.63;;;;;;;;;;5092002;28;20911;-78
2023/08/29 09:26:53;;;;;;;8.43;4.20;;;;;;;;;;5086771;28;20558;-79
2023/08/29 09:29:21;;;;;;;13.20;4.93;;;;;;;;;;5069875;28;20461;-77
2023/08/29 09:31:53;;;;;;;5.10;3.10;;;;;;;;;;5086333;28;20468;-78
2023/08/29 09:34:31;;;;;;;3.67;2.40;;;;;;;;;;5086855;28;20457;-80
2023/08/29 09:37:00;;;;;;;3.90;3.50;;;;;;;;;;5085288;28;20509;-77
2023/08/29 09:39:29;;;;;;;5.23;3.33;;;;;;;;;;5092902;28;20750;-78
2023/08/29 09:42:02;;;;;;;6.70;3.43;;;;;;;;;;5083016;28;20560;-79
2023/08/29 09:44:32;;;;;;;3.97;3.40;;;;;;;;;;5080815;28;20459;-79
2023/08/29 09:47:01;;;;;;;8.20;3.70;;;;;;;;;;5085442;28;20538;-80
2023/08/29 09:49:34;;;;;;;4.43;3.27;;;;;;;;;;5088504;28;20492;-81
2023/08/29 09:52:15;;;;;;;3.97;3.00;;;;;;;;;;5084160;28;20490;-79
2023/08/29 09:54:46;;;;;;;4.33;3.03;;;;;;;;;;5063173;28;20519;-79
2023/08/29 09:57:18;;;;;;;11.90;3.37;;;;;;;;;;5069551;28;20847;-81
2023/08/29 09:59:46;;;;;;;4.57;2.80;;;;;;;;;;5083061;28;20449;-79
2023/08/29 10:02:14;;;;;;;5.20;3.70;;;;;;;;;;5080356;28;20452;-78
2023/08/29 10:04:43;;;;;;;5.17;3.20;;;;;;;;;;5083317;28;20473;-78
2023/08/29 10:07:14;;;;;;;5.47;2.77;;;;;;;;;;5088715;28;20731;-78
2023/08/29 10:09:44;;;;;;;4.60;2.60;;;;;;;;;;5072214;28;20528;-80
2023/08/29 10:12:13;;;;;;;4.10;3.00;;;;;;;;;;5085110;28;20467;-79
2023/08/29 10:14:53;;;;;;;5.50;2.57;;;;;;;;;;5082313;28;20456;-79
2023/08/29 10:17:22;;;;;;;4.90;2.70;;;;;;;;;;5086701;28;20512;-78
2023/08/29 10:19:50;;;;;;;3.00;2.20;;;;;;;;;;5080220;28;20471;-80
2023/08/29 10:22:20;;;;;;;3.97;2.00;;;;;;;;;;5080485;22;20489;-79
2023/08/29 10:24:49;;;;;;;3.87;2.13;;;;;;;;;;5052270;28;20453;-80
2023/08/29 10:27:17;;;;;;;4.23;1.90;;;;;;;;;;5064448;28;20437;-79
2023/08/29 10:29:44;;;;;;;4.20;2.60;;;;;;;;;;5058283;28;20442;-78
2023/08/29 10:32:12;;;;;;;3.33;2.30;;;;;;;;;;5060787;28;20437;-79
2023/08/29 10:34:40;;;;;;;3.50;2.10;;;;;;;;;;5040417;28;20458;-79
2023/08/29 10:37:17;;;;;;;2.87;1.90;;;;;;;;;;5061273;28;20487;-78
2023/08/29 10:39:47;;;;;;;3.53;1.93;;;;;;;;;;5059113;28;20437;-78
2023/08/29 10:42:57;;;;;;;4.93;2.43;;;;;;;;;;5057498;28;20476;-78
2023/08/29 10:45:42;;;;;;;3.07;1.90;;;;;;;;;;5078131;28;20452;-77
2023/08/29 10:48:10;;;;;;;3.07;2.20;;;;;;;;;;5071558;28;20450;-78
2023/08/29 10:50:39;;;;;;;5.63;2.70;;;;;;;;;;5047318;28;20546;-80
2023/08/29 10:53:18;;;;;;;3.30;1.53;;;;;;;;;;5062972;28;20929;-78
2023/08/29 10:55:59;;;;;;;2.50;1.23;;;;;;;;;;5059643;28;20453;-78
2023/08/29 10:58:35;;;;;;;4.10;1.70;;;;;;;;;;5060490;28;20461;-77
2023/08/29 11:01:04;;;;;;;3.83;1.67;;;;;;;;;;5078096;28;20527;-80
2023/08/29 11:03:59;;;;;;;5.20;1.80;;;;;;;;;;5073886;28;20468;-80
2023/08/29 11:06:27;;;;;;;3.13;1.30;;;;;;;;;;5035047;28;20462;-79
2023/08/29 11:09:17;;;;;;;3.57;1.30;;;;;;;;;;5041722;28;20469;-78
2023/08/29 11:11:46;;;;;;;3.17;1.50;;;;;;;;;;5054346;28;20508;-79
2023/08/29 11:14:14;;;;;;;4.80;1.40;;;;;;;;;;5067139;28;20457;-80
2023/08/29 11:17:03;;;;;;;3.73;1.43;;;;;;;;;;5054574;28;20531;-78
2023/08/29 11:19:34;;;;;;;3.93;1.37;;;;;;;;;;5054959;28;20522;-77
2023/08/29 11:22:03;;;;;;;2.80;1.50;;;;;;;;;;5058662;28;20561;-79
2023/08/29 11:24:33;;;;;;;2.20;1.20;;;;;;;;;;5050773;28;20470;-78
2023/08/29 11:27:04;;;;;;;3.20;1.67;;;;;;;;;;5049672;28;20539;-79
2023/08/29 11:29:39;;;;;;;2.57;1.43;;;;;;;;;;5055022;28;20449;-78
2023/08/29 11:32:10;;;;;;;4.33;1.30;;;;;;;;;;5069465;28;20997;-80
2023/08/29 11:34:42;;;;;;;5.10;1.30;;;;;;;;;;5080973;28;20445;-78
